sensor_id;sensor_type;location;lat;lon;timestamp;P1;durP1;ratioP1;P2;durP2;ratioP2
59418;SDS011;45224;50.904;6.038;2022-07-23T00:01:07;6.13;;;5.00;;
59418;SDS011;45224;50.904;6.038;2022-07-23T00:02:37;7.00;;;4.67;;
59418;SDS011;45224;50.904;6.038;2022-07-23T00:04:08;10.30;;;6.10;;
59418;SDS011;45224;50.904;6.038;2022-07-23T00:05:38;8.10;;;5.87;;
59418;SDS011;45224;50.904;6.038;2022-07-23T00:07:08;8.10;;;6.03;;
59418;SDS011;45224;50.904;6.038;2022-07-23T00:08:39;10.30;;;5.20;;
59418;SDS011;45224;50.904;6.038;2022-07-23T00:10:09;10.93;;;6.38;;
59418;SDS011;45224;50.904;6.038;2022-07-23T00:11:40;7.93;;;4.85;;
59418;SDS011;45224;50.904;6.038;2022-07-23T00:13:10;7.37;;;5.13;;
59418;SDS011;45224;50.904;6.038;2022-07-23T00:14:41;12.60;;;6.53;;
59418;SDS011;45224;50.904;6.038;2022-07-23T00:16:11;10.35;;;5.78;;
59418;SDS011;45224;50.904;6.038;2022-07-23T00:17:42;10.13;;;6.60;;
59418;SDS011;45224;50.904;6.038;2022-07-23T00:19:12;11.43;;;5.67;;
59418;SDS011;45224;50.904;6.038;2022-07-23T00:20:43;12.63;;;5.13;;
59418;SDS011;45224;50.904;6.038;2022-07-23T00:22:13;6.37;;;4.33;;
59418;SDS011;45224;50.904;6.038;2022-07-23T00:23:43;11.07;;;6.50;;
59418;SDS011;45224;50.904;6.038;2022-07-23T00:25:14;7.60;;;5.10;;
59418;SDS011;45224;50.904;6.038;2022-07-23T00:26:45;6.32;;;4.60;;
59418;SDS011;45224;50.904;6.038;2022-07-23T00:28:15;7.77;;;5.37;;
59418;SDS011;45224;50.904;6.038;2022-07-23T00:29:46;9.60;;;5.63;;
59418;SDS011;45224;50.904;6.038;2022-07-23T00:31:16;6.27;;;5.37;;
59418;SDS011;45224;50.904;6.038;2022-07-23T00:32:49;9.98;;;5.30;;
59418;SDS011;45224;50.904;6.038;2022-07-23T00:34:24;7.22;;;5.30;;
59418;SDS011;45224;50.904;6.038;2022-07-23T00:35:55;7.75;;;5.47;;
59418;SDS011;45224;50.904;6.038;2022-07-23T00:37:25;8.10;;;5.40;;
59418;SDS011;45224;50.904;6.038;2022-07-23T00:38:56;7.87;;;5.83;;
59418;SDS011;45224;50.904;6.038;2022-07-23T00:40:27;8.27;;;5.50;;
59418;SDS011;45224;50.904;6.038;2022-07-23T00:41:58;10.52;;;6.10;;
59418;SDS011;45224;50.904;6.038;2022-07-23T00:43:28;8.52;;;5.78;;
59418;SDS011;45224;50.904;6.038;2022-07-23T00:44:59;9.60;;;5.33;;
59418;SDS011;45224;50.904;6.038;2022-07-23T00:46:29;8.02;;;5.50;;
59418;SDS011;45224;50.904;6.038;2022-07-23T00:48:00;11.40;;;5.50;;
59418;SDS011;45224;50.904;6.038;2022-07-23T00:49:31;9.35;;;5.57;;
59418;SDS011;45224;50.904;6.038;2022-07-23T00:51:01;10.43;;;6.10;;
59418;SDS011;45224;50.904;6.038;2022-07-23T00:52:32;9.40;;;5.43;;
59418;SDS011;45224;50.904;6.038;2022-07-23T00:54:04;8.07;;;5.28;;
59418;SDS011;45224;50.904;6.038;2022-07-23T00:55:34;9.07;;;4.93;;
59418;SDS011;45224;50.904;6.038;2022-07-23T00:57:05;9.97;;;6.23;;
59418;SDS011;45224;50.904;6.038;2022-07-23T00:58:36;8.23;;;5.72;;
59418;SDS011;45224;50.904;6.038;2022-07-23T01:00:07;8.63;;;5.20;;
59418;SDS011;45224;50.904;6.038;2022-07-23T01:01:41;10.07;;;5.72;;
59418;SDS011;45224;50.904;6.038;2022-07-23T01:03:14;9.77;;;5.65;;
59418;SDS011;45224;50.904;6.038;2022-07-23T01:04:44;8.37;;;5.43;;
59418;SDS011;45224;50.904;6.038;2022-07-23T01:06:15;8.63;;;5.43;;
59418;SDS011;45224;50.904;6.038;2022-07-23T01:07:45;8.50;;;5.80;;
59418;SDS011;45224;50.904;6.038;2022-07-23T01:09:16;8.52;;;5.18;;
59418;SDS011;45224;50.904;6.038;2022-07-23T01:10:47;8.73;;;5.35;;
59418;SDS011;45224;50.904;6.038;2022-07-23T01:12:19;7.57;;;5.18;;
59418;SDS011;45224;50.904;6.038;2022-07-23T01:13:49;10.43;;;5.90;;
59418;SDS011;45224;50.904;6.038;2022-07-23T01:15:20;8.55;;;5.22;;
59418;SDS011;45224;50.904;6.038;2022-07-23T01:16:51;7.28;;;5.45;;
59418;SDS011;45224;50.904;6.038;2022-07-23T01:18:22;8.52;;;5.85;;
59418;SDS011;45224;50.904;6.038;2022-07-23T01:19:52;10.93;;;6.07;;
59418;SDS011;45224;50.904;6.038;2022-07-23T01:21:23;8.60;;;5.80;;
59418;SDS011;45224;50.904;6.038;2022-07-23T01:24:25;11.13;;;5.33;;
59418;SDS011;45224;50.904;6.038;2022-07-23T01:26:05;7.97;;;5.07;;
59418;SDS011;45224;50.904;6.038;2022-07-23T01:27:36;8.60;;;5.70;;
59418;SDS011;45224;50.904;6.038;2022-07-23T01:29:08;10.38;;;6.03;;
59418;SDS011;45224;50.904;6.038;2022-07-23T01:30:39;7.78;;;6.03;;
59418;SDS011;45224;50.904;6.038;2022-07-23T01:32:11;9.23;;;6.03;;
59418;SDS011;45224;50.904;6.038;2022-07-23T01:33:42;8.07;;;5.67;;
59418;SDS011;45224;50.904;6.038;2022-07-23T01:35:12;12.32;;;6.85;;
59418;SDS011;45224;50.904;6.038;2022-07-23T01:36:43;10.23;;;5.82;;
59418;SDS011;45224;50.904;6.038;2022-07-23T01:38:15;8.88;;;6.05;;
59418;SDS011;45224;50.904;6.038;2022-07-23T01:41:18;8.52;;;5.80;;
59418;SDS011;45224;50.904;6.038;2022-07-23T01:42:48;11.52;;;7.13;;
59418;SDS011;45224;50.904;6.038;2022-07-23T01:44:20;9.32;;;6.15;;
59418;SDS011;45224;50.904;6.038;2022-07-23T01:45:51;11.80;;;7.20;;
59418;SDS011;45224;50.904;6.038;2022-07-23T01:47:21;10.00;;;7.10;;
59418;SDS011;45224;50.904;6.038;2022-07-23T01:48:55;10.65;;;6.40;;
59418;SDS011;45224;50.904;6.038;2022-07-23T01:50:45;12.05;;;7.47;;
59418;SDS011;45224;50.904;6.038;2022-07-23T01:52:37;11.63;;;7.60;;
59418;SDS011;45224;50.904;6.038;2022-07-23T01:54:07;10.60;;;7.40;;
59418;SDS011;45224;50.904;6.038;2022-07-23T01:55:38;10.85;;;6.88;;
59418;SDS011;45224;50.904;6.038;2022-07-23T01:57:09;12.40;;;6.63;;
59418;SDS011;45224;50.904;6.038;2022-07-23T02:00:11;9.50;;;6.37;;
59418;SDS011;45224;50.904;6.038;2022-07-23T02:01:49;13.15;;;6.82;;
59418;SDS011;45224;50.904;6.038;2022-07-23T02:03:23;10.95;;;6.40;;
59418;SDS011;45224;50.904;6.038;2022-07-23T02:04:54;9.93;;;6.28;;
59418;SDS011;45224;50.904;6.038;2022-07-23T02:06:29;10.40;;;6.70;;
59418;SDS011;45224;50.904;6.038;2022-07-23T02:07:59;11.53;;;6.90;;
59418;SDS011;45224;50.904;6.038;2022-07-23T02:09:30;13.50;;;7.22;;
59418;SDS011;45224;50.904;6.038;2022-07-23T02:11:01;9.20;;;6.47;;
59418;SDS011;45224;50.904;6.038;2022-07-23T02:12:32;8.32;;;6.40;;
59418;SDS011;45224;50.904;6.038;2022-07-23T02:14:02;12.60;;;6.27;;
59418;SDS011;45224;50.904;6.038;2022-07-23T02:15:33;10.30;;;6.25;;
59418;SDS011;45224;50.904;6.038;2022-07-23T02:17:03;13.48;;;7.38;;
59418;SDS011;45224;50.904;6.038;2022-07-23T02:18:34;11.13;;;6.73;;
59418;SDS011;45224;50.904;6.038;2022-07-23T02:20:05;13.23;;;7.20;;
59418;SDS011;45224;50.904;6.038;2022-07-23T02:21:36;11.90;;;8.02;;
59418;SDS011;45224;50.904;6.038;2022-07-23T02:23:07;13.07;;;7.73;;
59418;SDS011;45224;50.904;6.038;2022-07-23T02:24:37;12.02;;;7.57;;
59418;SDS011;45224;50.904;6.038;2022-07-23T02:26:08;14.23;;;7.63;;
59418;SDS011;45224;50.904;6.038;2022-07-23T02:27:40;11.27;;;7.07;;
59418;SDS011;45224;50.904;6.038;2022-07-23T02:29:11;11.77;;;7.03;;
59418;SDS011;45224;50.904;6.038;2022-07-23T02:30:42;12.55;;;6.88;;
59418;SDS011;45224;50.904;6.038;2022-07-23T02:33:44;8.83;;;6.50;;
59418;SDS011;45224;50.904;6.038;2022-07-23T02:35:14;11.50;;;6.30;;
59418;SDS011;45224;50.904;6.038;2022-07-23T02:36:45;10.10;;;6.50;;
59418;SDS011;45224;50.904;6.038;2022-07-23T02:38:16;9.20;;;6.28;;
59418;SDS011;45224;50.904;6.038;2022-07-23T02:39:46;10.87;;;6.33;;
59418;SDS011;45224;50.904;6.038;2022-07-23T02:41:18;12.60;;;6.82;;
59418;SDS011;45224;50.904;6.038;2022-07-23T02:42:49;10.55;;;6.93;;
59418;SDS011;45224;50.904;6.038;2022-07-23T02:44:20;13.93;;;7.33;;
59418;SDS011;45224;50.904;6.038;2022-07-23T02:45:54;12.43;;;6.95;;
59418;SDS011;45224;50.904;6.038;2022-07-23T02:47:24;11.27;;;6.90;;
59418;SDS011;45224;50.904;6.038;2022-07-23T02:48:54;15.30;;;8.17;;
59418;SDS011;45224;50.904;6.038;2022-07-23T02:50:25;14.30;;;7.90;;
59418;SDS011;45224;50.904;6.038;2022-07-23T02:51:59;12.23;;;7.55;;
59418;SDS011;45224;50.904;6.038;2022-07-23T02:53:30;13.38;;;8.27;;
59418;SDS011;45224;50.904;6.038;2022-07-23T02:55:01;12.67;;;7.43;;
59418;SDS011;45224;50.904;6.038;2022-07-23T02:56:31;14.03;;;7.30;;
59418;SDS011;45224;50.904;6.038;2022-07-23T02:58:02;12.33;;;7.53;;
59418;SDS011;45224;50.904;6.038;2022-07-23T02:59:32;11.03;;;7.00;;
59418;SDS011;45224;50.904;6.038;2022-07-23T03:01:03;12.63;;;7.88;;
59418;SDS011;45224;50.904;6.038;2022-07-23T03:02:34;10.23;;;7.88;;
59418;SDS011;45224;50.904;6.038;2022-07-23T03:04:04;11.83;;;7.57;;
59418;SDS011;45224;50.904;6.038;2022-07-23T03:05:35;12.98;;;7.93;;
59418;SDS011;45224;50.904;6.038;2022-07-23T03:07:05;14.80;;;8.03;;
59418;SDS011;45224;50.904;6.038;2022-07-23T03:08:36;12.60;;;7.40;;
59418;SDS011;45224;50.904;6.038;2022-07-23T03:10:06;10.17;;;7.40;;
59418;SDS011;45224;50.904;6.038;2022-07-23T03:11:37;11.70;;;8.00;;
59418;SDS011;45224;50.904;6.038;2022-07-23T03:13:07;10.37;;;7.50;;
59418;SDS011;45224;50.904;6.038;2022-07-23T03:16:10;8.57;;;6.55;;
59418;SDS011;45224;50.904;6.038;2022-07-23T03:17:41;11.55;;;7.15;;
59418;SDS011;45224;50.904;6.038;2022-07-23T03:19:11;11.60;;;8.00;;
59418;SDS011;45224;50.904;6.038;2022-07-23T03:20:42;9.73;;;7.63;;
59418;SDS011;45224;50.904;6.038;2022-07-23T03:23:43;8.90;;;6.40;;
59418;SDS011;45224;50.904;6.038;2022-07-23T03:25:14;11.73;;;6.70;;
59418;SDS011;45224;50.904;6.038;2022-07-23T03:26:44;13.43;;;7.37;;
59418;SDS011;45224;50.904;6.038;2022-07-23T03:28:16;12.13;;;8.00;;
59418;SDS011;45224;50.904;6.038;2022-07-23T03:29:50;13.40;;;7.90;;
59418;SDS011;45224;50.904;6.038;2022-07-23T03:31:21;11.68;;;7.38;;
59418;SDS011;45224;50.904;6.038;2022-07-23T03:32:51;10.07;;;7.33;;
59418;SDS011;45224;50.904;6.038;2022-07-23T03:34:22;12.73;;;7.33;;
59418;SDS011;45224;50.904;6.038;2022-07-23T03:35:52;14.95;;;8.07;;
59418;SDS011;45224;50.904;6.038;2022-07-23T03:37:29;12.65;;;7.90;;
59418;SDS011;45224;50.904;6.038;2022-07-23T03:39:02;11.82;;;7.78;;
59418;SDS011;45224;50.904;6.038;2022-07-23T03:40:33;13.85;;;7.65;;
59418;SDS011;45224;50.904;6.038;2022-07-23T03:42:04;10.27;;;7.30;;
59418;SDS011;45224;50.904;6.038;2022-07-23T03:43:35;11.02;;;7.70;;
59418;SDS011;45224;50.904;6.038;2022-07-23T03:45:05;10.53;;;7.20;;
59418;SDS011;45224;50.904;6.038;2022-07-23T03:46:36;12.52;;;7.90;;
59418;SDS011;45224;50.904;6.038;2022-07-23T03:48:06;12.55;;;7.65;;
59418;SDS011;45224;50.904;6.038;2022-07-23T03:49:37;12.97;;;7.43;;
59418;SDS011;45224;50.904;6.038;2022-07-23T03:51:07;12.83;;;7.33;;
59418;SDS011;45224;50.904;6.038;2022-07-23T03:52:38;11.75;;;7.15;;
59418;SDS011;45224;50.904;6.038;2022-07-23T03:54:08;13.17;;;8.03;;
59418;SDS011;45224;50.904;6.038;2022-07-23T03:55:39;12.73;;;7.32;;
59418;SDS011;45224;50.904;6.038;2022-07-23T03:57:10;12.77;;;8.60;;
59418;SDS011;45224;50.904;6.038;2022-07-23T03:58:40;12.97;;;8.70;;
59418;SDS011;45224;50.904;6.038;2022-07-23T04:00:11;14.27;;;8.50;;
59418;SDS011;45224;50.904;6.038;2022-07-23T04:01:47;12.65;;;8.00;;
59418;SDS011;45224;50.904;6.038;2022-07-23T04:03:17;15.25;;;8.60;;
59418;SDS011;45224;50.904;6.038;2022-07-23T04:04:48;11.57;;;7.47;;
59418;SDS011;45224;50.904;6.038;2022-07-23T04:06:19;13.82;;;8.55;;
59418;SDS011;45224;50.904;6.038;2022-07-23T04:07:51;11.40;;;7.38;;
59418;SDS011;45224;50.904;6.038;2022-07-23T04:09:22;12.23;;;7.45;;
59418;SDS011;45224;50.904;6.038;2022-07-23T04:10:53;11.63;;;7.72;;
59418;SDS011;45224;50.904;6.038;2022-07-23T04:12:25;11.88;;;7.88;;
59418;SDS011;45224;50.904;6.038;2022-07-23T04:13:57;13.30;;;7.82;;
59418;SDS011;45224;50.904;6.038;2022-07-23T04:15:28;13.38;;;8.25;;
59418;SDS011;45224;50.904;6.038;2022-07-23T04:16:59;16.90;;;8.15;;
59418;SDS011;45224;50.904;6.038;2022-07-23T04:18:30;14.43;;;7.75;;
59418;SDS011;45224;50.904;6.038;2022-07-23T04:20:10;12.20;;;7.65;;
59418;SDS011;45224;50.904;6.038;2022-07-23T04:21:52;13.75;;;8.27;;
59418;SDS011;45224;50.904;6.038;2022-07-23T04:23:22;12.27;;;8.07;;
59418;SDS011;45224;50.904;6.038;2022-07-23T04:24:53;12.15;;;8.15;;
59418;SDS011;45224;50.904;6.038;2022-07-23T04:26:24;19.20;;;7.93;;
59418;SDS011;45224;50.904;6.038;2022-07-23T04:27:54;12.82;;;7.93;;
59418;SDS011;45224;50.904;6.038;2022-07-23T04:29:25;11.48;;;7.75;;
59418;SDS011;45224;50.904;6.038;2022-07-23T04:30:56;13.50;;;8.00;;
59418;SDS011;45224;50.904;6.038;2022-07-23T04:33:58;13.23;;;7.57;;
59418;SDS011;45224;50.904;6.038;2022-07-23T04:35:28;12.77;;;7.73;;
59418;SDS011;45224;50.904;6.038;2022-07-23T04:37:08;12.88;;;7.13;;
59418;SDS011;45224;50.904;6.038;2022-07-23T04:38:39;12.43;;;7.93;;
59418;SDS011;45224;50.904;6.038;2022-07-23T04:40:10;15.00;;;8.30;;
59418;SDS011;45224;50.904;6.038;2022-07-23T04:41:42;12.48;;;8.75;;
59418;SDS011;45224;50.904;6.038;2022-07-23T04:43:12;16.13;;;9.50;;
59418;SDS011;45224;50.904;6.038;2022-07-23T04:44:50;15.70;;;9.95;;
59418;SDS011;45224;50.904;6.038;2022-07-23T04:46:21;12.95;;;8.32;;
59418;SDS011;45224;50.904;6.038;2022-07-23T04:47:54;13.45;;;8.63;;
59418;SDS011;45224;50.904;6.038;2022-07-23T04:49:25;13.02;;;8.85;;
59418;SDS011;45224;50.904;6.038;2022-07-23T04:50:56;12.40;;;8.32;;
59418;SDS011;45224;50.904;6.038;2022-07-23T04:52:27;13.55;;;8.25;;
59418;SDS011;45224;50.904;6.038;2022-07-23T04:53:58;12.67;;;8.33;;
59418;SDS011;45224;50.904;6.038;2022-07-23T04:55:28;13.00;;;8.93;;
59418;SDS011;45224;50.904;6.038;2022-07-23T04:57:02;11.65;;;8.40;;
59418;SDS011;45224;50.904;6.038;2022-07-23T04:58:32;15.63;;;9.67;;
59418;SDS011;45224;50.904;6.038;2022-07-23T05:00:03;17.35;;;8.75;;
59418;SDS011;45224;50.904;6.038;2022-07-23T05:01:35;12.10;;;8.45;;
59418;SDS011;45224;50.904;6.038;2022-07-23T05:03:05;16.03;;;9.37;;
59418;SDS011;45224;50.904;6.038;2022-07-23T05:04:36;13.40;;;9.07;;
59418;SDS011;45224;50.904;6.038;2022-07-23T05:06:07;17.65;;;8.93;;
59418;SDS011;45224;50.904;6.038;2022-07-23T05:07:38;12.85;;;8.98;;
59418;SDS011;45224;50.904;6.038;2022-07-23T05:09:09;15.15;;;10.23;;
59418;SDS011;45224;50.904;6.038;2022-07-23T05:10:39;18.33;;;10.10;;
59418;SDS011;45224;50.904;6.038;2022-07-23T05:12:10;14.00;;;8.90;;
59418;SDS011;45224;50.904;6.038;2022-07-23T05:13:40;13.68;;;9.63;;
59418;SDS011;45224;50.904;6.038;2022-07-23T05:15:12;14.25;;;9.55;;
59418;SDS011;45224;50.904;6.038;2022-07-23T05:16:42;13.03;;;8.63;;
59418;SDS011;45224;50.904;6.038;2022-07-23T05:18:19;13.38;;;8.55;;
59418;SDS011;45224;50.904;6.038;2022-07-23T05:19:49;10.97;;;7.83;;
59418;SDS011;45224;50.904;6.038;2022-07-23T05:21:20;13.57;;;8.07;;
59418;SDS011;45224;50.904;6.038;2022-07-23T05:22:50;12.40;;;8.50;;
59418;SDS011;45224;50.904;6.038;2022-07-23T05:24:21;11.10;;;8.15;;
59418;SDS011;45224;50.904;6.038;2022-07-23T05:25:52;18.27;;;8.63;;
59418;SDS011;45224;50.904;6.038;2022-07-23T05:27:23;15.30;;;8.88;;
59418;SDS011;45224;50.904;6.038;2022-07-23T05:28:53;11.47;;;8.23;;
59418;SDS011;45224;50.904;6.038;2022-07-23T05:30:24;16.97;;;9.90;;
59418;SDS011;45224;50.904;6.038;2022-07-23T05:31:58;10.88;;;7.97;;
59418;SDS011;45224;50.904;6.038;2022-07-23T05:33:29;13.80;;;8.30;;
59418;SDS011;45224;50.904;6.038;2022-07-23T05:35:00;17.42;;;9.93;;
59418;SDS011;45224;50.904;6.038;2022-07-23T05:36:31;14.13;;;9.67;;
59418;SDS011;45224;50.904;6.038;2022-07-23T05:38:04;13.35;;;9.68;;
59418;SDS011;45224;50.904;6.038;2022-07-23T05:39:35;16.58;;;10.55;;
59418;SDS011;45224;50.904;6.038;2022-07-23T05:41:06;13.63;;;9.33;;
59418;SDS011;45224;50.904;6.038;2022-07-23T05:42:37;15.17;;;10.07;;
59418;SDS011;45224;50.904;6.038;2022-07-23T05:44:09;15.32;;;10.38;;
59418;SDS011;45224;50.904;6.038;2022-07-23T05:45:42;15.68;;;10.10;;
59418;SDS011;45224;50.904;6.038;2022-07-23T05:47:14;16.65;;;10.15;;
59418;SDS011;45224;50.904;6.038;2022-07-23T05:48:44;16.67;;;10.88;;
59418;SDS011;45224;50.904;6.038;2022-07-23T05:50:38;24.52;;;11.85;;
59418;SDS011;45224;50.904;6.038;2022-07-23T05:52:26;14.90;;;10.10;;
59418;SDS011;45224;50.904;6.038;2022-07-23T05:54:26;13.98;;;9.05;;
59418;SDS011;45224;50.904;6.038;2022-07-23T05:55:56;17.80;;;11.40;;
59418;SDS011;45224;50.904;6.038;2022-07-23T05:57:27;17.87;;;9.90;;
59418;SDS011;45224;50.904;6.038;2022-07-23T05:58:57;15.23;;;9.23;;
59418;SDS011;45224;50.904;6.038;2022-07-23T06:00:28;16.57;;;9.93;;
59418;SDS011;45224;50.904;6.038;2022-07-23T06:03:30;14.73;;;10.38;;
59418;SDS011;45224;50.904;6.038;2022-07-23T06:06:35;13.65;;;9.13;;
59418;SDS011;45224;50.904;6.038;2022-07-23T06:08:06;12.60;;;8.45;;
59418;SDS011;45224;50.904;6.038;2022-07-23T06:09:37;13.13;;;8.70;;
59418;SDS011;45224;50.904;6.038;2022-07-23T06:11:07;15.32;;;10.40;;
59418;SDS011;45224;50.904;6.038;2022-07-23T06:12:38;13.13;;;8.25;;
59418;SDS011;45224;50.904;6.038;2022-07-23T06:14:09;14.05;;;10.02;;
59418;SDS011;45224;50.904;6.038;2022-07-23T06:17:21;14.37;;;9.60;;
59418;SDS011;45224;50.904;6.038;2022-07-23T06:18:51;18.40;;;10.13;;
59418;SDS011;45224;50.904;6.038;2022-07-23T06:20:23;13.70;;;9.55;;
59418;SDS011;45224;50.904;6.038;2022-07-23T06:21:54;12.60;;;8.67;;
59418;SDS011;45224;50.904;6.038;2022-07-23T06:23:24;12.60;;;9.43;;
59418;SDS011;45224;50.904;6.038;2022-07-23T06:24:54;10.77;;;8.00;;
59418;SDS011;45224;50.904;6.038;2022-07-23T06:26:26;18.25;;;10.45;;
59418;SDS011;45224;50.904;6.038;2022-07-23T06:27:56;15.67;;;10.50;;
59418;SDS011;45224;50.904;6.038;2022-07-23T06:29:26;15.27;;;10.07;;
59418;SDS011;45224;50.904;6.038;2022-07-23T06:30:57;17.20;;;9.87;;
59418;SDS011;45224;50.904;6.038;2022-07-23T06:32:28;17.08;;;9.50;;
59418;SDS011;45224;50.904;6.038;2022-07-23T06:33:58;12.68;;;8.95;;
59418;SDS011;45224;50.904;6.038;2022-07-23T06:35:29;21.70;;;12.52;;
59418;SDS011;45224;50.904;6.038;2022-07-23T06:36:59;19.25;;;12.60;;
59418;SDS011;45224;50.904;6.038;2022-07-23T06:38:30;19.55;;;12.93;;
59418;SDS011;45224;50.904;6.038;2022-07-23T06:40:01;17.50;;;11.37;;
59418;SDS011;45224;50.904;6.038;2022-07-23T06:41:31;21.58;;;10.95;;
59418;SDS011;45224;50.904;6.038;2022-07-23T06:43:02;17.48;;;10.43;;
59418;SDS011;45224;50.904;6.038;2022-07-23T06:44:32;17.92;;;11.77;;
59418;SDS011;45224;50.904;6.038;2022-07-23T06:46:04;20.42;;;11.88;;
59418;SDS011;45224;50.904;6.038;2022-07-23T06:47:34;22.08;;;13.73;;
59418;SDS011;45224;50.904;6.038;2022-07-23T06:49:05;23.45;;;15.55;;
59418;SDS011;45224;50.904;6.038;2022-07-23T06:50:35;19.42;;;12.88;;
59418;SDS011;45224;50.904;6.038;2022-07-23T06:52:06;20.67;;;12.40;;
59418;SDS011;45224;50.904;6.038;2022-07-23T06:55:08;18.30;;;11.37;;
59418;SDS011;45224;50.904;6.038;2022-07-23T06:58:09;27.27;;;14.37;;
59418;SDS011;45224;50.904;6.038;2022-07-23T06:59:40;24.58;;;15.43;;
59418;SDS011;45224;50.904;6.038;2022-07-23T07:01:11;22.73;;;15.32;;
59418;SDS011;45224;50.904;6.038;2022-07-23T07:02:41;23.90;;;14.87;;
59418;SDS011;45224;50.904;6.038;2022-07-23T07:04:12;20.75;;;14.45;;
59418;SDS011;45224;50.904;6.038;2022-07-23T07:05:42;23.90;;;14.30;;
59418;SDS011;45224;50.904;6.038;2022-07-23T07:07:13;21.93;;;14.50;;
59418;SDS011;45224;50.904;6.038;2022-07-23T07:08:43;20.13;;;13.93;;
59418;SDS011;45224;50.904;6.038;2022-07-23T07:10:14;22.83;;;14.10;;
59418;SDS011;45224;50.904;6.038;2022-07-23T07:11:46;20.65;;;13.07;;
59418;SDS011;45224;50.904;6.038;2022-07-23T07:13:16;23.70;;;14.50;;
59418;SDS011;45224;50.904;6.038;2022-07-23T07:14:47;20.27;;;14.45;;
59418;SDS011;45224;50.904;6.038;2022-07-23T07:16:17;26.52;;;15.48;;
59418;SDS011;45224;50.904;6.038;2022-07-23T07:17:48;22.20;;;13.18;;
59418;SDS011;45224;50.904;6.038;2022-07-23T07:19:18;19.67;;;12.57;;
59418;SDS011;45224;50.904;6.038;2022-07-23T07:20:49;22.70;;;13.23;;
59418;SDS011;45224;50.904;6.038;2022-07-23T07:22:19;21.10;;;13.18;;
59418;SDS011;45224;50.904;6.038;2022-07-23T07:23:50;16.57;;;11.27;;
59418;SDS011;45224;50.904;6.038;2022-07-23T07:25:20;21.95;;;15.52;;
59418;SDS011;45224;50.904;6.038;2022-07-23T07:26:51;23.02;;;14.80;;
59418;SDS011;45224;50.904;6.038;2022-07-23T07:28:21;22.17;;;13.50;;
59418;SDS011;45224;50.904;6.038;2022-07-23T07:29:52;27.00;;;15.35;;
59418;SDS011;45224;50.904;6.038;2022-07-23T07:31:22;21.33;;;13.70;;
59418;SDS011;45224;50.904;6.038;2022-07-23T07:32:53;17.92;;;12.13;;
59418;SDS011;45224;50.904;6.038;2022-07-23T07:34:23;20.42;;;13.52;;
59418;SDS011;45224;50.904;6.038;2022-07-23T07:35:53;17.83;;;12.60;;
59418;SDS011;45224;50.904;6.038;2022-07-23T07:37:24;21.00;;;11.68;;
59418;SDS011;45224;50.904;6.038;2022-07-23T07:38:55;19.92;;;12.77;;
59418;SDS011;45224;50.904;6.038;2022-07-23T07:40:25;17.33;;;11.23;;
59418;SDS011;45224;50.904;6.038;2022-07-23T07:41:56;20.85;;;13.15;;
59418;SDS011;45224;50.904;6.038;2022-07-23T07:43:27;16.20;;;11.48;;
59418;SDS011;45224;50.904;6.038;2022-07-23T07:44:57;19.45;;;12.40;;
59418;SDS011;45224;50.904;6.038;2022-07-23T07:46:28;22.27;;;13.52;;
59418;SDS011;45224;50.904;6.038;2022-07-23T07:47:58;16.80;;;10.95;;
59418;SDS011;45224;50.904;6.038;2022-07-23T07:49:29;19.48;;;12.00;;
59418;SDS011;45224;50.904;6.038;2022-07-23T07:50:59;16.13;;;9.93;;
59418;SDS011;45224;50.904;6.038;2022-07-23T07:52:29;20.05;;;11.52;;
59418;SDS011;45224;50.904;6.038;2022-07-23T07:54:00;17.42;;;10.93;;
59418;SDS011;45224;50.904;6.038;2022-07-23T07:55:31;21.08;;;14.07;;
59418;SDS011;45224;50.904;6.038;2022-07-23T07:57:01;23.08;;;12.52;;
59418;SDS011;45224;50.904;6.038;2022-07-23T07:58:32;18.33;;;10.23;;
59418;SDS011;45224;50.904;6.038;2022-07-23T08:00:03;13.20;;;9.32;;
59418;SDS011;45224;50.904;6.038;2022-07-23T08:01:43;19.27;;;10.82;;
59418;SDS011;45224;50.904;6.038;2022-07-23T08:04:44;20.42;;;11.25;;
59418;SDS011;45224;50.904;6.038;2022-07-23T08:06:15;18.13;;;10.77;;
59418;SDS011;45224;50.904;6.038;2022-07-23T08:07:45;26.40;;;11.73;;
59418;SDS011;45224;50.904;6.038;2022-07-23T08:10:46;14.20;;;10.27;;
59418;SDS011;45224;50.904;6.038;2022-07-23T08:13:47;16.47;;;9.63;;
59418;SDS011;45224;50.904;6.038;2022-07-23T08:16:49;14.23;;;9.07;;
59418;SDS011;45224;50.904;6.038;2022-07-23T08:19:50;17.13;;;10.23;;
59418;SDS011;45224;50.904;6.038;2022-07-23T08:21:20;14.55;;;9.65;;
59418;SDS011;45224;50.904;6.038;2022-07-23T08:24:25;12.13;;;8.27;;
59418;SDS011;45224;50.904;6.038;2022-07-23T08:25:55;15.05;;;8.05;;
59418;SDS011;45224;50.904;6.038;2022-07-23T08:27:26;11.40;;;7.38;;
59418;SDS011;45224;50.904;6.038;2022-07-23T08:28:57;11.75;;;7.32;;
59418;SDS011;45224;50.904;6.038;2022-07-23T08:30:28;11.43;;;7.13;;
59418;SDS011;45224;50.904;6.038;2022-07-23T08:31:59;9.02;;;6.35;;
59418;SDS011;45224;50.904;6.038;2022-07-23T08:33:30;11.00;;;6.75;;
59418;SDS011;45224;50.904;6.038;2022-07-23T08:35:00;8.43;;;6.53;;
59418;SDS011;45224;50.904;6.038;2022-07-23T08:36:31;12.90;;;8.48;;
59418;SDS011;45224;50.904;6.038;2022-07-23T08:38:03;9.60;;;7.25;;
59418;SDS011;45224;50.904;6.038;2022-07-23T08:39:35;9.15;;;5.75;;
59418;SDS011;45224;50.904;6.038;2022-07-23T08:41:05;10.35;;;6.10;;
59418;SDS011;45224;50.904;6.038;2022-07-23T08:42:37;10.23;;;6.20;;
59418;SDS011;45224;50.904;6.038;2022-07-23T08:44:09;12.82;;;6.35;;
59418;SDS011;45224;50.904;6.038;2022-07-23T08:45:40;15.25;;;6.10;;
59418;SDS011;45224;50.904;6.038;2022-07-23T08:47:12;7.22;;;4.55;;
59418;SDS011;45224;50.904;6.038;2022-07-23T08:48:45;9.68;;;5.70;;
59418;SDS011;45224;50.904;6.038;2022-07-23T08:50:19;8.35;;;6.15;;
59418;SDS011;45224;50.904;6.038;2022-07-23T08:51:50;8.65;;;4.95;;
59418;SDS011;45224;50.904;6.038;2022-07-23T08:53:22;13.50;;;7.47;;
59418;SDS011;45224;50.904;6.038;2022-07-23T08:54:54;10.23;;;6.15;;
59418;SDS011;45224;50.904;6.038;2022-07-23T08:56:25;12.25;;;6.60;;
59418;SDS011;45224;50.904;6.038;2022-07-23T08:57:55;11.40;;;6.57;;
59418;SDS011;45224;50.904;6.038;2022-07-23T08:59:25;13.45;;;6.68;;
59418;SDS011;45224;50.904;6.038;2022-07-23T09:00:57;10.48;;;6.80;;
59418;SDS011;45224;50.904;6.038;2022-07-23T09:02:27;12.32;;;7.50;;
59418;SDS011;45224;50.904;6.038;2022-07-23T09:03:58;11.70;;;6.57;;
59418;SDS011;45224;50.904;6.038;2022-07-23T09:05:29;10.20;;;5.30;;
59418;SDS011;45224;50.904;6.038;2022-07-23T09:07:00;7.90;;;5.10;;
59418;SDS011;45224;50.904;6.038;2022-07-23T09:08:38;8.95;;;5.68;;
59418;SDS011;45224;50.904;6.038;2022-07-23T09:10:13;9.82;;;6.13;;
59418;SDS011;45224;50.904;6.038;2022-07-23T09:11:47;8.50;;;6.22;;
59418;SDS011;45224;50.904;6.038;2022-07-23T09:15:06;9.40;;;6.07;;
59418;SDS011;45224;50.904;6.038;2022-07-23T09:16:38;9.13;;;6.25;;
59418;SDS011;45224;50.904;6.038;2022-07-23T09:18:08;9.10;;;6.07;;
59418;SDS011;45224;50.904;6.038;2022-07-23T09:19:39;10.05;;;7.30;;
59418;SDS011;45224;50.904;6.038;2022-07-23T09:22:47;8.45;;;5.93;;
59418;SDS011;45224;50.904;6.038;2022-07-23T09:24:19;8.45;;;6.13;;
59418;SDS011;45224;50.904;6.038;2022-07-23T09:25:50;8.90;;;5.70;;
59418;SDS011;45224;50.904;6.038;2022-07-23T09:27:20;9.98;;;7.07;;
59418;SDS011;45224;50.904;6.038;2022-07-23T09:30:26;8.70;;;6.38;;
59418;SDS011;45224;50.904;6.038;2022-07-23T09:32:01;9.30;;;6.35;;
59418;SDS011;45224;50.904;6.038;2022-07-23T09:33:35;10.85;;;5.93;;
59418;SDS011;45224;50.904;6.038;2022-07-23T09:35:06;11.80;;;5.55;;